FVS61R OKKK-OKAS
Flight info
| Callsign | FVS61R |
|---|---|
| Flight time | 0h 10m |
| Altitude | 3000 |
| Route | VFR |
| Aircraft | A189/M-V/N |
Departure
| Time | 2026-05-07 19:54 |
|---|---|
| Airport | Kuwait International Airport (OKKK) |
Arrival
| Time | 2026-05-07 20:04 |
|---|---|
| Airport | Ali Al Salem Air Base (OKAS) |
| Time | Latitude | Longitude | Altitude | Speed | Heading |
|---|---|---|---|---|---|
| 2026-05-07 19:40 | 29.22927 | 47.98426 | 173 ft | 0 kts | 160° |
| 2026-05-07 19:52 | 29.22925 | 47.98425 | 174 ft | 1 kts | 223° |
| 2026-05-07 19:53 | 29.22921 | 47.98408 | 196 ft | 12 kts | 257° |
| 2026-05-07 19:53 | 29.22965 | 47.98190 | 379 ft | 49 kts | 290° |
| 2026-05-07 19:53 | 29.23166 | 47.97707 | 584 ft | 82 kts | 300° |
| 2026-05-07 19:53 | 29.23485 | 47.97141 | 750 ft | 91 kts | 302° |
| 2026-05-07 19:54 | 29.23757 | 47.96433 | 880 ft | 100 kts | 301° |
| 2026-05-07 19:54 | 29.24087 | 47.95724 | 935 ft | 99 kts | 300° |
| 2026-05-07 19:54 | 29.24390 | 47.94980 | 879 ft | 106 kts | 297° |
| 2026-05-07 19:54 | 29.24715 | 47.94167 | 835 ft | 123 kts | 299° |
| 2026-05-07 19:55 | 29.25108 | 47.93196 | 837 ft | 143 kts | 296° |
| 2026-05-07 19:55 | 29.25445 | 47.92075 | 836 ft | 151 kts | 287° |
| 2026-05-07 19:55 | 29.25707 | 47.90910 | 838 ft | 148 kts | 287° |
| 2026-05-07 19:55 | 29.25955 | 47.89796 | 850 ft | 144 kts | 286° |
| 2026-05-07 19:56 | 29.26198 | 47.88706 | 843 ft | 137 kts | 287° |
| 2026-05-07 19:56 | 29.26438 | 47.87658 | 838 ft | 137 kts | 288° |
| 2026-05-07 19:56 | 29.26681 | 47.86599 | 837 ft | 137 kts | 288° |
| 2026-05-07 19:56 | 29.26924 | 47.85536 | 838 ft | 137 kts | 288° |
| 2026-05-07 19:57 | 29.27164 | 47.84486 | 838 ft | 137 kts | 288° |
| 2026-05-07 19:57 | 29.27409 | 47.83424 | 838 ft | 137 kts | 288° |
| 2026-05-07 19:57 | 29.27651 | 47.82372 | 838 ft | 137 kts | 288° |
| 2026-05-07 19:57 | 29.27894 | 47.81322 | 838 ft | 137 kts | 288° |
| 2026-05-07 19:58 | 29.28139 | 47.80258 | 838 ft | 137 kts | 288° |
| 2026-05-07 19:58 | 29.28382 | 47.79210 | 838 ft | 137 kts | 288° |
| 2026-05-07 19:58 | 29.28626 | 47.78157 | 838 ft | 137 kts | 288° |
| 2026-05-07 19:58 | 29.28875 | 47.77094 | 839 ft | 137 kts | 288° |
| 2026-05-07 19:59 | 29.29122 | 47.76043 | 839 ft | 137 kts | 288° |
| 2026-05-07 19:59 | 29.29371 | 47.74995 | 839 ft | 137 kts | 288° |
| 2026-05-07 19:59 | 29.29625 | 47.73935 | 840 ft | 137 kts | 288° |
| 2026-05-07 19:59 | 29.29876 | 47.72887 | 841 ft | 137 kts | 288° |
| 2026-05-07 20:00 | 29.30127 | 47.71839 | 842 ft | 137 kts | 288° |
| 2026-05-07 20:00 | 29.30381 | 47.70781 | 843 ft | 136 kts | 288° |
| 2026-05-07 20:00 | 29.30632 | 47.69735 | 843 ft | 136 kts | 288° |
| 2026-05-07 20:00 | 29.30878 | 47.68705 | 855 ft | 129 kts | 287° |
| 2026-05-07 20:01 | 29.31107 | 47.67744 | 841 ft | 121 kts | 288° |
| 2026-05-07 20:01 | 29.31322 | 47.66823 | 834 ft | 120 kts | 288° |
| 2026-05-07 20:01 | 29.31542 | 47.65886 | 833 ft | 121 kts | 288° |
| 2026-05-07 20:01 | 29.31762 | 47.64955 | 834 ft | 121 kts | 288° |
| 2026-05-07 20:02 | 29.31984 | 47.64027 | 836 ft | 121 kts | 288° |
| 2026-05-07 20:02 | 29.32209 | 47.63098 | 836 ft | 121 kts | 288° |
| 2026-05-07 20:02 | 29.32438 | 47.62160 | 836 ft | 121 kts | 288° |
| 2026-05-07 20:02 | 29.32664 | 47.61234 | 837 ft | 121 kts | 288° |
| 2026-05-07 20:03 | 29.32890 | 47.60307 | 838 ft | 121 kts | 288° |
| 2026-05-07 20:03 | 29.33116 | 47.59379 | 839 ft | 121 kts | 288° |
| 2026-05-07 20:03 | 29.33345 | 47.58440 | 840 ft | 121 kts | 288° |
| 2026-05-07 20:03 | 29.33571 | 47.57511 | 840 ft | 121 kts | 288° |
| 2026-05-07 20:04 | 29.33796 | 47.56588 | 852 ft | 119 kts | 287° |
| 2026-05-07 20:04 | 29.33996 | 47.55760 | 860 ft | 95 kts | 287° |
| 2026-05-07 20:04 | 29.34141 | 47.55123 | 850 ft | 68 kts | 288° |
| 2026-05-07 20:04 | 29.34214 | 47.54694 | 831 ft | 45 kts | 289° |
| 2026-05-07 20:05 | 29.34252 | 47.54379 | 831 ft | 37 kts | 288° |
| 2026-05-07 20:05 | 29.34302 | 47.54082 | 838 ft | 38 kts | 288° |
| 2026-05-07 20:05 | 29.34363 | 47.53783 | 842 ft | 38 kts | 288° |
| 2026-05-07 20:05 | 29.34427 | 47.53485 | 843 ft | 38 kts | 288° |
| 2026-05-07 20:06 | 29.34491 | 47.53191 | 844 ft | 38 kts | 288° |
| 2026-05-07 20:06 | 29.34556 | 47.52892 | 844 ft | 38 kts | 288° |
| 2026-05-07 20:06 | 29.34619 | 47.52597 | 844 ft | 38 kts | 288° |
| 2026-05-07 20:06 | 29.34684 | 47.52302 | 845 ft | 38 kts | 288° |
| 2026-05-07 20:07 | 29.34750 | 47.52007 | 845 ft | 38 kts | 288° |
| 2026-05-07 20:07 | 29.34816 | 47.51712 | 845 ft | 38 kts | 288° |
| 2026-05-07 20:07 | 29.34884 | 47.51414 | 845 ft | 38 kts | 288° |
| 2026-05-07 20:07 | 29.34950 | 47.51120 | 845 ft | 38 kts | 288° |
| 2026-05-07 20:08 | 29.35017 | 47.50826 | 846 ft | 38 kts | 288° |
| 2026-05-07 20:08 | 29.35082 | 47.50531 | 846 ft | 38 kts | 287° |
| 2026-05-07 20:08 | 29.35073 | 47.50228 | 855 ft | 37 kts | 270° |
| 2026-05-07 20:08 | 29.34858 | 47.50097 | 855 ft | 39 kts | 148° |
| 2026-05-07 20:09 | 29.34659 | 47.50312 | 830 ft | 39 kts | 144° |
| 2026-05-07 20:09 | 29.34456 | 47.50478 | 670 ft | 33 kts | 139° |
| 2026-05-07 20:09 | 29.34307 | 47.50615 | 518 ft | 26 kts | 138° |
| 2026-05-07 20:10 | 29.34297 | 47.50625 | 462 ft | 1 kts | 138° |
| 2026-05-07 20:10 | 29.33822 | 47.53121 | 474 ft | 0 kts | 346° |